createdAt,value
2022-12-25T00:00:34.882Z,3.40
2022-12-25T00:03:37.181Z,3.40
2022-12-25T00:06:39.009Z,3.42
2022-12-25T00:09:40.775Z,3.44
2022-12-25T00:12:42.499Z,3.43
2022-12-25T00:15:44.138Z,3.43
2022-12-25T00:18:46.398Z,3.40
2022-12-25T00:21:48.039Z,3.44
2022-12-25T00:24:49.917Z,3.47
2022-12-25T00:27:51.841Z,3.47
2022-12-25T00:30:53.543Z,3.51
2022-12-25T00:33:55.274Z,3.49
2022-12-25T00:36:56.920Z,3.48
2022-12-25T00:39:59.168Z,3.44
2022-12-25T00:43:01.230Z,3.36
2022-12-25T00:46:05.884Z,3.27
2022-12-25T00:49:07.643Z,3.17
2022-12-25T00:52:09.879Z,2.99
2022-12-25T00:55:11.534Z,2.91
2022-12-25T00:58:13.346Z,2.88
2022-12-25T01:01:15.248Z,2.95
2022-12-25T01:04:17.130Z,3.00
2022-12-25T01:07:19.703Z,2.93
2022-12-25T01:10:27.326Z,2.89
2022-12-25T01:13:30.017Z,2.83
2022-12-25T01:16:31.895Z,2.76
2022-12-25T01:19:33.743Z,2.72
2022-12-25T01:22:35.514Z,2.72
2022-12-25T01:25:37.322Z,2.68
2022-12-25T01:28:39.104Z,2.66
2022-12-25T01:31:40.726Z,2.69
2022-12-25T01:34:42.306Z,2.73
2022-12-25T01:37:44.062Z,2.72
2022-12-25T01:40:45.746Z,2.72
2022-12-25T01:44:06.144Z,2.69
2022-12-25T01:47:07.756Z,2.67
2022-12-25T01:50:09.704Z,2.64
2022-12-25T01:53:12.260Z,2.65
2022-12-25T01:56:14.122Z,2.65
2022-12-25T01:59:19.670Z,2.65
2022-12-25T02:02:22.401Z,2.63
2022-12-25T02:05:29.321Z,2.63
2022-12-25T02:08:31.161Z,2.69
2022-12-25T02:11:51.543Z,2.76
2022-12-25T02:15:01.234Z,2.83
2022-12-25T02:18:19.447Z,2.96
2022-12-25T02:21:42.686Z,3.13
2022-12-25T02:25:12.748Z,3.44
2022-12-25T02:28:45.433Z,3.65
2022-12-25T02:31:59.801Z,3.73
2022-12-25T02:35:11.257Z,3.80
2022-12-25T02:38:20.438Z,3.83
2022-12-25T02:41:22.553Z,3.82
2022-12-25T02:44:44.509Z,3.72
2022-12-25T02:48:05.057Z,3.70
2022-12-25T02:51:29.470Z,3.69
2022-12-25T02:54:56.069Z,3.62
2022-12-25T02:58:20.727Z,3.60
2022-12-25T03:01:43.848Z,3.49
2022-12-25T03:05:05.705Z,3.31
2022-12-25T03:08:13.983Z,3.17
2022-12-25T03:11:34.263Z,3.09
2022-12-25T03:14:54.935Z,3.00
2022-12-25T03:17:59.413Z,2.94
2022-12-25T03:21:21.365Z,2.92
2022-12-25T03:24:41.456Z,3.00
2022-12-25T03:27:46.777Z,3.01
2022-12-25T03:31:17.223Z,3.01
2022-12-25T03:35:11.779Z,3.03
2022-12-25T03:39:04.082Z,3.09
2022-12-25T03:42:25.566Z,3.18
2022-12-25T03:45:56.667Z,3.18
2022-12-25T03:49:22.823Z,3.20
2022-12-25T03:52:47.558Z,3.19
2022-12-25T03:56:10.053Z,3.28
2022-12-25T03:59:30.481Z,3.41
2022-12-25T04:02:51.537Z,3.51
2022-12-25T04:06:11.950Z,3.58
2022-12-25T04:09:32.304Z,3.61
2022-12-25T04:12:52.341Z,3.81
2022-12-25T04:16:13.205Z,3.85
2022-12-25T04:19:33.369Z,3.80
2022-12-25T04:22:53.593Z,3.79
2022-12-25T04:26:17.052Z,4.00
2022-12-25T04:29:37.125Z,4.02
2022-12-25T04:32:57.510Z,4.10
2022-12-25T04:36:12.269Z,4.21
2022-12-25T04:39:14.200Z,4.15
2022-12-25T04:42:16.954Z,4.08
2022-12-25T04:45:19.355Z,4.04
2022-12-25T04:48:21.432Z,3.96
2022-12-25T04:51:25.514Z,4.05
2022-12-25T04:54:27.208Z,4.09
2022-12-25T04:57:28.787Z,4.20
2022-12-25T05:00:30.628Z,4.30
2022-12-25T05:03:32.923Z,4.40
2022-12-25T05:06:34.790Z,4.53
2022-12-25T05:09:36.404Z,4.61
2022-12-25T05:12:38.096Z,4.63
2022-12-25T05:15:40.813Z,4.63
2022-12-25T05:18:42.719Z,4.63
2022-12-25T05:21:44.345Z,4.64
2022-12-25T05:24:46.027Z,4.64
2022-12-25T05:27:53.754Z,4.71
2022-12-25T05:30:57.699Z,4.69
2022-12-25T05:33:59.639Z,4.65
2022-12-25T05:37:01.224Z,4.65
2022-12-25T05:40:03.880Z,4.73
2022-12-25T05:43:05.770Z,4.71
2022-12-25T05:46:09.857Z,4.68
2022-12-25T05:49:11.676Z,4.73
2022-12-25T05:52:13.413Z,4.69
2022-12-25T05:55:15.290Z,4.66
2022-12-25T05:58:16.931Z,4.69
2022-12-25T06:01:23.370Z,4.66
2022-12-25T06:04:25.268Z,4.65
2022-12-25T06:07:27.006Z,4.67
2022-12-25T06:10:28.747Z,4.68
2022-12-25T06:13:31.624Z,4.67
2022-12-25T06:16:37.870Z,4.67
2022-12-25T06:19:42.742Z,4.65
2022-12-25T06:22:45.873Z,4.65
2022-12-25T06:25:48.649Z,4.63
2022-12-25T06:28:50.617Z,4.63
2022-12-25T06:31:57.274Z,4.67
2022-12-25T06:34:59.205Z,4.75
2022-12-25T06:38:01.131Z,4.87
2022-12-25T06:41:05.626Z,4.90
2022-12-25T06:44:07.463Z,4.93
2022-12-25T06:47:09.247Z,4.91
2022-12-25T06:50:10.870Z,4.91
2022-12-25T06:53:12.867Z,4.86
2022-12-25T06:56:17.096Z,4.80
2022-12-25T06:59:18.826Z,4.75
2022-12-25T07:02:22.438Z,4.76
2022-12-25T07:05:24.096Z,4.79
2022-12-25T07:08:25.716Z,4.73
2022-12-25T07:11:28.359Z,4.72
2022-12-25T07:14:30.031Z,4.71
2022-12-25T07:17:35.278Z,4.73
2022-12-25T07:20:37.251Z,4.74
2022-12-25T07:23:39.526Z,4.70
2022-12-25T07:26:41.188Z,4.69
2022-12-25T07:29:43.193Z,4.80
2022-12-25T07:32:50.021Z,4.89
2022-12-25T07:35:52.163Z,4.95
2022-12-25T07:38:54.135Z,5.04
2022-12-25T07:41:57.671Z,5.10
2022-12-25T07:45:02.570Z,5.10
2022-12-25T07:48:05.778Z,5.04
2022-12-25T07:51:11.601Z,5.01
2022-12-25T07:54:13.593Z,4.94
2022-12-25T07:57:15.194Z,4.85
2022-12-25T08:00:17.752Z,4.79
2022-12-25T08:03:19.769Z,4.77
2022-12-25T08:06:23.302Z,4.75
2022-12-25T08:09:25.178Z,4.75
2022-12-25T08:12:26.977Z,4.80
2022-12-25T08:15:30.918Z,4.85
2022-12-25T08:18:32.822Z,4.90
2022-12-25T08:21:34.705Z,4.91
2022-12-25T08:24:36.591Z,5.00
2022-12-25T08:27:38.485Z,5.06
2022-12-25T08:30:40.969Z,5.14
2022-12-25T08:33:43.400Z,5.21
2022-12-25T08:36:45.117Z,5.25
2022-12-25T08:39:46.875Z,5.33
2022-12-25T08:42:48.709Z,5.40
2022-12-25T08:45:50.628Z,5.45
2022-12-25T08:48:52.424Z,5.54
2022-12-25T08:51:54.363Z,5.56
2022-12-25T08:54:56.472Z,5.61
2022-12-25T08:57:58.434Z,5.67
2022-12-25T09:01:01.033Z,5.70
2022-12-25T09:04:02.827Z,5.71
2022-12-25T09:07:04.592Z,5.74
2022-12-25T09:10:07.323Z,5.81
2022-12-25T09:13:09.926Z,5.92
2022-12-25T09:16:15.065Z,5.99
2022-12-25T09:19:17.129Z,6.10
2022-12-25T09:22:19.502Z,6.23
2022-12-25T09:25:21.536Z,6.31
2022-12-25T09:28:23.351Z,6.34
2022-12-25T09:31:25.331Z,6.42
2022-12-25T09:34:27.259Z,6.45
2022-12-25T09:37:29.638Z,6.45
2022-12-25T09:40:32.596Z,6.47
2022-12-25T09:43:43.344Z,6.47
2022-12-25T09:46:50.986Z,6.46
2022-12-25T09:50:08.701Z,6.45
2022-12-25T09:53:17.648Z,6.46
2022-12-25T09:56:26.370Z,6.51
2022-12-25T09:59:28.208Z,6.54
2022-12-25T10:02:54.692Z,6.56
2022-12-25T10:06:18.747Z,6.59
2022-12-25T10:09:29.762Z,6.60
2022-12-25T10:12:53.058Z,6.58
2022-12-25T10:16:05.368Z,6.60
2022-12-25T10:19:31.722Z,6.62
2022-12-25T10:23:00.905Z,6.71
2022-12-25T10:26:04.464Z,6.78
2022-12-25T10:29:19.968Z,6.85
2022-12-25T10:32:22.775Z,6.89
2022-12-25T10:35:28.958Z,6.90
2022-12-25T10:38:30.973Z,6.91
2022-12-25T10:42:00.384Z,6.94
2022-12-25T10:45:05.444Z,7.04
2022-12-25T10:48:08.189Z,7.11
2022-12-25T10:51:10.438Z,7.11
2022-12-25T10:54:20.939Z,7.11
2022-12-25T10:57:25.696Z,7.14
2022-12-25T11:00:32.739Z,7.16
2022-12-25T11:03:39.824Z,7.18
2022-12-25T11:06:42.958Z,7.16
2022-12-25T11:09:55.413Z,7.18
2022-12-25T11:13:01.336Z,7.15
2022-12-25T11:16:14.970Z,7.17
2022-12-25T11:19:30.735Z,7.20
2022-12-25T11:22:37.193Z,7.19
2022-12-25T11:25:39.222Z,7.20
2022-12-25T11:28:42.752Z,7.23
2022-12-25T11:31:46.442Z,7.31
2022-12-25T11:34:49.532Z,7.38
2022-12-25T11:37:52.864Z,7.44
2022-12-25T11:40:59.039Z,7.44
2022-12-25T11:44:08.152Z,7.44
2022-12-25T11:47:22.822Z,7.43
2022-12-25T11:50:29.414Z,7.44
2022-12-25T11:53:53.054Z,7.46
2022-12-25T11:56:57.846Z,7.49
2022-12-25T12:00:06.828Z,7.49
2022-12-25T12:03:28.547Z,7.50
2022-12-25T12:06:45.738Z,7.51
2022-12-25T12:09:48.362Z,7.50
2022-12-25T12:13:16.802Z,7.50
2022-12-25T12:16:18.527Z,7.49
2022-12-25T12:19:31.409Z,7.49
2022-12-25T12:22:33.164Z,7.44
2022-12-25T12:25:40.315Z,7.40
2022-12-25T12:28:47.541Z,7.36
2022-12-25T12:31:51.381Z,7.37
2022-12-25T12:34:53.410Z,7.35
2022-12-25T12:38:00.904Z,7.35
2022-12-25T12:41:06.558Z,7.34
2022-12-25T12:44:12.059Z,7.34
2022-12-25T12:47:39.458Z,7.33
2022-12-25T12:50:41.928Z,7.29
2022-12-25T12:53:44.009Z,7.32
2022-12-25T12:57:02.044Z,7.34
2022-12-25T13:00:09.917Z,7.34
2022-12-25T13:03:43.731Z,7.32
2022-12-25T13:06:51.588Z,7.30
2022-12-25T13:10:00.882Z,7.26
2022-12-25T13:13:17.908Z,7.25
2022-12-25T13:16:29.236Z,7.24
2022-12-25T13:19:31.082Z,7.22
2022-12-25T13:22:35.066Z,7.20
2022-12-25T13:25:36.929Z,7.18
2022-12-25T13:28:38.942Z,7.17
2022-12-25T13:31:42.141Z,7.15
2022-12-25T13:34:44.028Z,7.16
2022-12-25T13:37:46.063Z,7.11
2022-12-25T13:41:12.040Z,7.13
2022-12-25T13:44:23.726Z,7.09
2022-12-25T13:47:54.886Z,7.09
2022-12-25T13:50:59.703Z,7.10
2022-12-25T13:54:12.528Z,7.11
2022-12-25T13:57:14.635Z,7.13
2022-12-25T14:00:19.634Z,7.14
2022-12-25T14:03:34.720Z,7.07
2022-12-25T14:06:36.678Z,7.05
2022-12-25T14:09:40.314Z,7.03
2022-12-25T14:12:43.151Z,7.03
2022-12-25T14:15:48.074Z,7.02
2022-12-25T14:18:56.057Z,7.00
2022-12-25T14:22:11.295Z,7.04
2022-12-25T14:25:15.656Z,7.03
2022-12-25T14:28:37.911Z,7.05
2022-12-25T14:31:40.414Z,7.05
2022-12-25T14:34:46.559Z,7.02
2022-12-25T14:37:52.107Z,7.07
2022-12-25T14:41:05.894Z,7.08
2022-12-25T14:44:39.546Z,7.10
2022-12-25T14:47:52.618Z,7.08
2022-12-25T14:51:19.758Z,7.10
2022-12-25T14:54:23.561Z,7.05
2022-12-25T14:57:34.901Z,7.02
2022-12-25T15:00:39.824Z,7.02
2022-12-25T15:03:41.888Z,7.01
2022-12-25T15:07:07.483Z,7.04
2022-12-25T15:10:57.461Z,7.04
2022-12-25T15:13:36.289Z,7.08
2022-12-25T15:16:41.887Z,7.09
2022-12-25T15:19:43.693Z,7.10
2022-12-25T15:23:17.751Z,7.12
2022-12-25T15:26:14.461Z,7.14
2022-12-25T15:29:27.574Z,7.10
2022-12-25T15:32:38.626Z,7.11
2022-12-25T15:35:40.794Z,7.12
2022-12-25T15:38:42.738Z,7.14
2022-12-25T15:42:03.190Z,7.14
2022-12-25T15:45:05.284Z,7.18
2022-12-25T15:48:06.992Z,7.20
2022-12-25T15:51:08.550Z,7.19
2022-12-25T15:54:11.083Z,7.18
2022-12-25T15:57:22.204Z,7.22
2022-12-25T16:00:25.978Z,7.19
2022-12-25T16:03:27.685Z,7.19
2022-12-25T16:06:29.494Z,7.23
2022-12-25T16:09:32.313Z,7.22
2022-12-25T16:12:33.903Z,7.21
2022-12-25T16:15:35.672Z,7.26
2022-12-25T16:18:41.903Z,7.29
2022-12-25T16:21:48.503Z,7.26
2022-12-25T16:24:50.244Z,7.28
2022-12-25T16:27:51.847Z,7.26
2022-12-25T16:30:53.649Z,7.28
2022-12-25T16:33:55.279Z,7.26
2022-12-25T16:36:56.924Z,7.29
2022-12-25T16:39:58.667Z,7.31
2022-12-25T16:43:00.433Z,7.36
2022-12-25T16:46:19.170Z,7.36
2022-12-25T16:49:21.775Z,7.40
2022-12-25T16:52:24.275Z,7.37
2022-12-25T16:55:30.031Z,7.33
2022-12-25T16:58:32.047Z,7.30
2022-12-25T17:01:34.079Z,7.29
2022-12-25T17:04:36.004Z,7.28
2022-12-25T17:07:37.938Z,7.29
2022-12-25T17:10:39.681Z,7.29
2022-12-25T17:13:41.739Z,7.31
2022-12-25T17:16:43.656Z,7.29
2022-12-25T17:19:45.858Z,7.36
2022-12-25T17:22:48.905Z,7.36
2022-12-25T17:25:50.651Z,7.40
2022-12-25T17:28:52.425Z,7.47
2022-12-25T17:31:54.365Z,7.40
2022-12-25T17:34:56.302Z,7.43
2022-12-25T17:37:58.038Z,7.40
2022-12-25T17:41:01.576Z,7.42
2022-12-25T17:44:04.027Z,7.42
2022-12-25T17:47:08.805Z,7.45
2022-12-25T17:50:10.580Z,7.47
2022-12-25T17:53:12.940Z,7.48
2022-12-25T17:56:16.315Z,7.48
2022-12-25T17:59:19.036Z,7.50
2022-12-25T18:02:22.813Z,7.52
2022-12-25T18:05:24.840Z,7.57
2022-12-25T18:08:26.573Z,7.57
2022-12-25T18:11:32.778Z,7.55
2022-12-25T18:14:35.335Z,7.60
2022-12-25T18:17:39.320Z,7.63
2022-12-25T18:20:42.333Z,7.64
2022-12-25T18:23:46.376Z,7.63
2022-12-25T18:26:49.197Z,7.63
2022-12-25T18:29:52.286Z,7.61
2022-12-25T18:32:53.964Z,7.62
2022-12-25T18:36:02.564Z,7.59
2022-12-25T18:39:04.675Z,7.59
2022-12-25T18:42:25.249Z,7.58
2022-12-25T18:45:28.671Z,7.59
2022-12-25T18:48:31.716Z,7.61
2022-12-25T18:51:37.059Z,7.64
2022-12-25T18:54:39.030Z,7.62
2022-12-25T18:57:41.631Z,7.61
2022-12-25T19:00:43.539Z,7.61
2022-12-25T19:03:47.347Z,7.63
2022-12-25T19:06:49.797Z,7.65
2022-12-25T19:09:51.683Z,7.67
2022-12-25T19:12:53.576Z,7.67
2022-12-25T19:15:58.753Z,7.68
2022-12-25T19:19:01.330Z,7.72
2022-12-25T19:22:03.196Z,7.81
2022-12-25T19:25:08.100Z,7.83
2022-12-25T19:28:09.790Z,7.87
2022-12-25T19:31:12.585Z,7.95
2022-12-25T19:34:14.747Z,8.02
2022-12-25T19:37:16.606Z,8.09
2022-12-25T19:40:18.709Z,8.15
2022-12-25T19:43:20.414Z,8.20
2022-12-25T19:46:28.241Z,8.18
2022-12-25T19:49:30.870Z,8.17
2022-12-25T19:52:32.761Z,8.16
2022-12-25T19:55:34.472Z,8.18
2022-12-25T19:58:36.256Z,8.17
2022-12-25T20:01:39.094Z,8.14
2022-12-25T20:04:41.089Z,8.15
2022-12-25T20:07:42.774Z,8.15
2022-12-25T20:10:45.637Z,8.16
2022-12-25T20:13:50.335Z,8.16
2022-12-25T20:16:52.691Z,8.13
2022-12-25T20:19:54.383Z,8.12
2022-12-25T20:22:56.117Z,8.11
2022-12-25T20:26:01.910Z,8.14
2022-12-25T20:29:04.048Z,8.16
2022-12-25T20:32:09.710Z,8.19
2022-12-25T20:35:15.996Z,8.18
2022-12-25T20:38:18.060Z,8.21
2022-12-25T20:41:29.697Z,8.26
2022-12-25T20:44:31.797Z,8.26
2022-12-25T20:47:34.603Z,8.30
2022-12-25T20:50:36.871Z,8.33
2022-12-25T20:53:42.602Z,8.35
2022-12-25T20:56:48.334Z,8.37
2022-12-25T20:59:51.194Z,8.36
2022-12-25T21:02:53.090Z,8.32
2022-12-25T21:05:56.230Z,8.31
2022-12-25T21:08:57.954Z,8.36
2022-12-25T21:11:59.913Z,8.40
2022-12-25T21:15:01.764Z,8.42
2022-12-25T21:18:03.827Z,8.40
2022-12-25T21:21:08.371Z,8.37
2022-12-25T21:24:11.018Z,8.37
2022-12-25T21:27:12.809Z,8.39
2022-12-25T21:30:15.877Z,8.46
2022-12-25T21:33:36.714Z,8.46
2022-12-25T21:36:40.106Z,8.45
2022-12-25T21:39:42.890Z,8.45
2022-12-25T21:42:45.724Z,8.45
2022-12-25T21:45:47.715Z,8.45
2022-12-25T21:48:50.135Z,8.42
2022-12-25T21:52:10.096Z,8.45
2022-12-25T21:55:14.843Z,8.47
2022-12-25T21:58:16.545Z,8.50
2022-12-25T22:01:18.849Z,8.51
2022-12-25T22:04:22.796Z,8.51
2022-12-25T22:07:24.512Z,8.56
2022-12-25T22:10:26.598Z,8.61
2022-12-25T22:13:47.243Z,8.68
2022-12-25T22:17:09.105Z,8.69
2022-12-25T22:20:17.068Z,8.71
2022-12-25T22:23:19.458Z,8.73
2022-12-25T22:26:21.322Z,8.76
2022-12-25T22:29:23.253Z,8.78
2022-12-25T22:32:25.023Z,8.80
2022-12-25T22:35:26.783Z,8.83
2022-12-25T22:38:28.610Z,8.86
2022-12-25T22:41:33.645Z,8.93
2022-12-25T22:44:35.777Z,9.05
2022-12-25T22:47:38.078Z,9.10
2022-12-25T22:50:39.831Z,9.16
2022-12-25T22:53:41.655Z,9.12
2022-12-25T22:56:45.093Z,9.14
2022-12-25T22:59:46.884Z,9.18
2022-12-25T23:02:48.923Z,9.15
2022-12-25T23:05:56.521Z,9.17
2022-12-25T23:08:58.108Z,9.16
2022-12-25T23:11:59.993Z,9.11
2022-12-25T23:15:01.966Z,9.16
2022-12-25T23:18:22.380Z,9.18
2022-12-25T23:21:46.099Z,9.19
2022-12-25T23:25:06.567Z,9.19
2022-12-25T23:28:08.387Z,9.23
2022-12-25T23:31:14.047Z,9.21
2022-12-25T23:34:16.104Z,9.24
2022-12-25T23:37:18.646Z,9.28
2022-12-25T23:40:20.600Z,9.20
2022-12-25T23:43:22.335Z,9.14
2022-12-25T23:46:24.554Z,9.15
2022-12-25T23:49:27.591Z,9.14
2022-12-25T23:52:29.363Z,9.10
2022-12-25T23:55:31.058Z,9.09
2022-12-25T23:58:32.740Z,9.13
